Baltic Marshall — C4KD2 — position and weather

sailwx.info

Track history (hours):
 
Tides and Currents Weather Stations Pressure Air Temp Water Temp Dewpoint Dewpoint Depression Visibility Wind Speed Wind Dir Waves Ship Positions

Baltic Marshall

Last reported at 2017-Jan-24 04:34 UTC. Time now 2017-Jan-24 04:59 UTC.
Position N 57°21' E 011°29'.

Length 183 m; draft 6.4 m.

Type: Ship. MMSI: 212118000.

Date/timePositionNaut miles runAvg speedWind from/ knotsBaromVisibWave heightAir tempDewpointWater temp
2017-Jan-24 04:34N 57°21' E 011°29'1413.7
2017-Jan-24 03:33N 57°33' E 011°14'1514.5
2017-Jan-24 02:33N 57°43' E 010°54'1414.3
2017-Jan-24 01:34N 57°48' E 010°29'1414.4
2017-Jan-24 00:33N 57°48' E 010°02'1413.7
2017-Jan-23 23:33N 57°44' E 009°37'1414.2
2017-Jan-23 22:34N 57°37' E 009°15'30613.9
2017-Jan-23 00:33N 53°32' E 003°50'6114.4
2017-Jan-22 20:21N 52°35' E 003°15'1113.9
2017-Jan-22 19:32N 52°24' E 003°13'1513.4
2017-Jan-22 18:25N 52°09' E 003°07'1112.5
2017-Jan-22 17:31N 51°58' E 003°05'1212.0
2017-Jan-22 16:32N 51°47' E 003°11'1212.6
2017-Jan-22 15:33N 51°37' E 003°22'1111.4
2017-Jan-22 14:33N 51°27' E 003°32'8 7.6
2017-Jan-22 13:33N 51°25' E 003°44'0 0.0
2017-Jan-20 09:34N 51°25' E 003°44'5 4.7
2017-Jan-20 08:33N 51°26' E 003°36'7 6.9
2017-Jan-20 07:34N 51°25' E 003°25'8 8.4
2017-Jan-20 06:34N 51°24' E 003°12'8 8.5
2017-Jan-20 05:33N 51°25' E 002°58'10 9.5
2017-Jan-20 04:34N 51°24' E 002°43'4 3.5
2017-Jan-20 03:32N 51°27' E 002°40'0 0.1
2017-Jan-20 02:32N 51°27' E 002°40'0 0.0
2017-Jan-20 01:32N 51°27' E 002°40'0 0.0
2017-Jan-20 00:32N 51°27' E 002°40'0 0.0
2017-Jan-19 23:32N 51°27' E 002°40'0 0.0
2017-Jan-19 22:32N 51°27' E 002°40'0 0.0
2017-Jan-19 21:32N 51°27' E 002°40'0 0.2
2017-Jan-19 20:32N 51°27' E 002°40'0 0.1
2017-Jan-19 19:32N 51°27' E 002°40'0 0.0
2017-Jan-19 18:32N 51°27' E 002°40'0 0.0
2017-Jan-19 17:32N 51°27' E 002°40'0 0.1
2017-Jan-19 16:32N 51°27' E 002°40'0 0.1
2017-Jan-19 15:32N 51°27' E 002°40'0 0.0
2017-Jan-19 14:32N 51°27' E 002°40'0 0.0
2017-Jan-19 13:32N 51°27' E 002°40'0 0.0
2017-Jan-19 12:32N 51°27' E 002°40'0 0.0
2017-Jan-19 11:32N 51°27' E 002°40'0 0.0
2017-Jan-19 10:32N 51°27' E 002°40'0 0.0
2017-Jan-19 09:32N 51°27' E 002°40'0 0.1
2017-Jan-19 08:29N 51°27' E 002°40'0 0.1
2017-Jan-19 07:32N 51°27' E 002°40'0 0.0
2017-Jan-19 06:32N 51°27' E 002°40'0 0.0
2017-Jan-19 05:32N 51°27' E 002°40'0 0.0
2017-Jan-19 04:32N 51°27' E 002°40'0 0.2
2017-Jan-19 03:32N 51°26' E 002°40'0 0.0
2017-Jan-19 02:32N 51°26' E 002°40'0 0.0
2017-Jan-19 01:32N 51°26' E 002°40'0 0.0
2017-Jan-19 00:32N 51°26' E 002°40'0 0.0
2017-Jan-18 23:32N 51°26' E 002°40'0 0.1
2017-Jan-18 22:32N 51°27' E 002°40'0 0.0
2017-Jan-18 21:32N 51°27' E 002°40'0 0.1
2017-Jan-18 20:32N 51°27' E 002°40'0 0.1
2017-Jan-18 19:32N 51°27' E 002°40'0 0.0
2017-Jan-18 18:32N 51°27' E 002°40'0 0.0
2017-Jan-18 17:26N 51°27' E 002°40'0 0.0
2017-Jan-18 16:32N 51°27' E 002°40'0 0.0
2017-Jan-18 15:32N 51°27' E 002°40'0 0.2
2017-Jan-18 14:32N 51°27' E 002°40'0 0.1
2017-Jan-18 13:32N 51°26' E 002°40'0 0.0
2017-Jan-18 12:29N 51°27' E 002°40'0 0.0
2017-Jan-18 11:32N 51°27' E 002°40'0 0.0
2017-Jan-18 10:32N 51°27' E 002°40'0 0.1
2017-Jan-18 09:32N 51°27' E 002°40'0 0.1
2017-Jan-18 08:32N 51°27' E 002°40'0 0.1
2017-Jan-18 07:32N 51°27' E 002°40'0 0.0
2017-Jan-18 06:32N 51°27' E 002°40'0 0.0
2017-Jan-18 05:32N 51°27' E 002°40'0 0.0
2017-Jan-18 04:32N 51°27' E 002°40'0 0.0
2017-Jan-18 03:29N 51°27' E 002°40'0 0.1
2017-Jan-18 02:32N 51°27' E 002°40'0 0.1
2017-Jan-18 01:32N 51°27' E 002°40'0 0.0
2017-Jan-18 00:32N 51°27' E 002°40'0 0.0
2017-Jan-17 23:32N 51°27' E 002°40'0 0.0
2017-Jan-17 22:32N 51°27' E 002°40'0 0.0
2017-Jan-17 21:32N 51°27' E 002°40'0 0.2
2017-Jan-17 20:32N 51°27' E 002°40'0 0.1
2017-Jan-17 19:29N 51°27' E 002°40'0 0.0
2017-Jan-17 18:32N 51°27' E 002°40'0 0.0
2017-Jan-17 17:32N 51°27' E 002°40'0 0.0
2017-Jan-17 16:23N 51°27' E 002°40'0 0.0
2017-Jan-17 15:32N 51°27' E 002°40'0 0.0
2017-Jan-17 14:32N 51°27' E 002°40'2 2.5
2017-Jan-17 13:33N 51°25' E 002°37'1111.0
2017-Jan-17 12:33N 51°20' E 002°22'1110.8
2017-Jan-17 11:33N 51°21' E 002°04'9 9.2
2017-Jan-17 10:33N 51°30' E 002°04'1414.1
2017-Jan-17 09:34N 51°40' E 002°19'1413.2
2017-Jan-17 08:31N 51°51' E 002°33'1212.1
2017-Jan-17 07:33N 52°02' E 002°39'12412.3
2017-Jan-16 21:25N 53°55' E 004°07'32312.5
2017-Jan-15 19:33N 57°49' E 010°42'1211.7
2017-Jan-15 18:33N 57°42' E 010°59'1313.1
2017-Jan-15 17:34N 57°33' E 011°17'1312.7
2017-Jan-15 16:34N 57°22' E 011°30'1312.8
2017-Jan-15 15:33N 57°10' E 011°38'1413.3
2017-Jan-15 14:29N 56°56' E 011°47'1212.7
2017-Jan-15 13:32N 56°44' E 011°51'3712.3
2017-Jan-15 10:33N 56°19' E 011°04'6611.1
2017-Jan-15 04:32N 55°12' E 011°06'9 9.1
2017-Jan-15 03:33N 55°04' E 010°60'1110.6
2017-Jan-15 02:33N 54°55' E 010°52'1110.9
2017-Jan-15 01:33N 54°44' E 010°47'1110.9
2017-Jan-15 00:33N 54°36' E 010°60'1111.5
2017-Jan-14 23:33N 54°33' E 011°19'1212.3
2017-Jan-14 22:33N 54°28' E 011°39'1312.6
2017-Jan-14 21:31N 54°27' E 012°01'1010.5
2017-Jan-14 20:33N 54°33' E 012°15'1111.0
2017-Jan-14 19:33N 54°41' E 012°27'5212.7
2017-Jan-14 15:30N 55°01' E 013°49'1212.6
2017-Jan-14 14:33N 55°07' E 014°08'1312.9
2017-Jan-14 13:33N 55°17' E 014°22'1312.7
2017-Jan-14 12:33N 55°27' E 014°36'1312.6
2017-Jan-14 11:32N 55°32' E 014°56'1313.2
2017-Jan-14 10:32N 55°38' E 015°17'  
Track history (hours):
 
Tides and Currents Weather Stations Pressure Air Temp Water Temp Dewpoint Dewpoint Depression Visibility Wind Speed Wind Dir Waves Ship Positions

Baltic Marshall

Last reported at 2017-Jan-24 04:34 UTC. Time now 2017-Jan-24 04:59 UTC.
Position N 57°21' E 011°29'.

Length 183 m; draft 6.4 m.

Type: Ship. MMSI: 212118000.

Date/timePositionNaut miles runAvg speedWind from/ knotsBaromVisibWave heightAir tempDewpointWater temp
2017-Jan-24 04:34N 57°21' E 011°29'1413.7
2017-Jan-24 03:33N 57°33' E 011°14'1514.5
2017-Jan-24 02:33N 57°43' E 010°54'1414.3
2017-Jan-24 01:34N 57°48' E 010°29'1414.4
2017-Jan-24 00:33N 57°48' E 010°02'1413.7
2017-Jan-23 23:33N 57°44' E 009°37'1414.2
2017-Jan-23 22:34N 57°37' E 009°15'30613.9
2017-Jan-23 00:33N 53°32' E 003°50'6114.4
2017-Jan-22 20:21N 52°35' E 003°15'1113.9
2017-Jan-22 19:32N 52°24' E 003°13'1513.4
2017-Jan-22 18:25N 52°09' E 003°07'1112.5
2017-Jan-22 17:31N 51°58' E 003°05'1212.0
2017-Jan-22 16:32N 51°47' E 003°11'1212.6
2017-Jan-22 15:33N 51°37' E 003°22'1111.4
2017-Jan-22 14:33N 51°27' E 003°32'8 7.6
2017-Jan-22 13:33N 51°25' E 003°44'0 0.0
2017-Jan-20 09:34N 51°25' E 003°44'5 4.7
2017-Jan-20 08:33N 51°26' E 003°36'7 6.9
2017-Jan-20 07:34N 51°25' E 003°25'8 8.4
2017-Jan-20 06:34N 51°24' E 003°12'8 8.5
2017-Jan-20 05:33N 51°25' E 002°58'10 9.5
2017-Jan-20 04:34N 51°24' E 002°43'4 3.5
2017-Jan-20 03:32N 51°27' E 002°40'0 0.1
2017-Jan-20 02:32N 51°27' E 002°40'0 0.0
2017-Jan-20 01:32N 51°27' E 002°40'0 0.0
2017-Jan-20 00:32N 51°27' E 002°40'0 0.0
2017-Jan-19 23:32N 51°27' E 002°40'0 0.0
2017-Jan-19 22:32N 51°27' E 002°40'0 0.0
2017-Jan-19 21:32N 51°27' E 002°40'0 0.2
2017-Jan-19 20:32N 51°27' E 002°40'0 0.1
2017-Jan-19 19:32N 51°27' E 002°40'0 0.0
2017-Jan-19 18:32N 51°27' E 002°40'0 0.0
2017-Jan-19 17:32N 51°27' E 002°40'0 0.1
2017-Jan-19 16:32N 51°27' E 002°40'0 0.1
2017-Jan-19 15:32N 51°27' E 002°40'0 0.0
2017-Jan-19 14:32N 51°27' E 002°40'0 0.0
2017-Jan-19 13:32N 51°27' E 002°40'0 0.0
2017-Jan-19 12:32N 51°27' E 002°40'0 0.0
2017-Jan-19 11:32N 51°27' E 002°40'0 0.0
2017-Jan-19 10:32N 51°27' E 002°40'0 0.0
2017-Jan-19 09:32N 51°27' E 002°40'0 0.1
2017-Jan-19 08:29N 51°27' E 002°40'0 0.1
2017-Jan-19 07:32N 51°27' E 002°40'0 0.0
2017-Jan-19 06:32N 51°27' E 002°40'0 0.0
2017-Jan-19 05:32N 51°27' E 002°40'0 0.0
2017-Jan-19 04:32N 51°27' E 002°40'0 0.2
2017-Jan-19 03:32N 51°26' E 002°40'0 0.0
2017-Jan-19 02:32N 51°26' E 002°40'0 0.0
2017-Jan-19 01:32N 51°26' E 002°40'0 0.0
2017-Jan-19 00:32N 51°26' E 002°40'0 0.0
2017-Jan-18 23:32N 51°26' E 002°40'0 0.1
2017-Jan-18 22:32N 51°27' E 002°40'0 0.0
2017-Jan-18 21:32N 51°27' E 002°40'0 0.1
2017-Jan-18 20:32N 51°27' E 002°40'0 0.1
2017-Jan-18 19:32N 51°27' E 002°40'0 0.0
2017-Jan-18 18:32N 51°27' E 002°40'0 0.0
2017-Jan-18 17:26N 51°27' E 002°40'0 0.0
2017-Jan-18 16:32N 51°27' E 002°40'0 0.0
2017-Jan-18 15:32N 51°27' E 002°40'0 0.2
2017-Jan-18 14:32N 51°27' E 002°40'0 0.1
2017-Jan-18 13:32N 51°26' E 002°40'0 0.0
2017-Jan-18 12:29N 51°27' E 002°40'0 0.0
2017-Jan-18 11:32N 51°27' E 002°40'0 0.0
2017-Jan-18 10:32N 51°27' E 002°40'0 0.1
2017-Jan-18 09:32N 51°27' E 002°40'0 0.1
2017-Jan-18 08:32N 51°27' E 002°40'0 0.1
2017-Jan-18 07:32N 51°27' E 002°40'0 0.0
2017-Jan-18 06:32N 51°27' E 002°40'0 0.0
2017-Jan-18 05:32N 51°27' E 002°40'0 0.0
2017-Jan-18 04:32N 51°27' E 002°40'0 0.0
2017-Jan-18 03:29N 51°27' E 002°40'0 0.1
2017-Jan-18 02:32N 51°27' E 002°40'0 0.1
2017-Jan-18 01:32N 51°27' E 002°40'0 0.0
2017-Jan-18 00:32N 51°27' E 002°40'0 0.0
2017-Jan-17 23:32N 51°27' E 002°40'0 0.0
2017-Jan-17 22:32N 51°27' E 002°40'0 0.0
2017-Jan-17 21:32N 51°27' E 002°40'0 0.2
2017-Jan-17 20:32N 51°27' E 002°40'0 0.1
2017-Jan-17 19:29N 51°27' E 002°40'0 0.0
2017-Jan-17 18:32N 51°27' E 002°40'0 0.0
2017-Jan-17 17:32N 51°27' E 002°40'0 0.0
2017-Jan-17 16:23N 51°27' E 002°40'0 0.0
2017-Jan-17 15:32N 51°27' E 002°40'0 0.0
2017-Jan-17 14:32N 51°27' E 002°40'2 2.5
2017-Jan-17 13:33N 51°25' E 002°37'1111.0
2017-Jan-17 12:33N 51°20' E 002°22'1110.8
2017-Jan-17 11:33N 51°21' E 002°04'9 9.2
2017-Jan-17 10:33N 51°30' E 002°04'1414.1
2017-Jan-17 09:34N 51°40' E 002°19'1413.2
2017-Jan-17 08:31N 51°51' E 002°33'1212.1
2017-Jan-17 07:33N 52°02' E 002°39'12412.3
2017-Jan-16 21:25N 53°55' E 004°07'32312.5
2017-Jan-15 19:33N 57°49' E 010°42'1211.7
2017-Jan-15 18:33N 57°42' E 010°59'1313.1
2017-Jan-15 17:34N 57°33' E 011°17'1312.7
2017-Jan-15 16:34N 57°22' E 011°30'1312.8
2017-Jan-15 15:33N 57°10' E 011°38'1413.3
2017-Jan-15 14:29N 56°56' E 011°47'1212.7
2017-Jan-15 13:32N 56°44' E 011°51'3712.3
2017-Jan-15 10:33N 56°19' E 011°04'6611.1
2017-Jan-15 04:32N 55°12' E 011°06'9 9.1
2017-Jan-15 03:33N 55°04' E 010°60'1110.6
2017-Jan-15 02:33N 54°55' E 010°52'1110.9
2017-Jan-15 01:33N 54°44' E 010°47'1110.9
2017-Jan-15 00:33N 54°36' E 010°60'1111.5
2017-Jan-14 23:33N 54°33' E 011°19'1212.3
2017-Jan-14 22:33N 54°28' E 011°39'1312.6
2017-Jan-14 21:31N 54°27' E 012°01'1010.5
2017-Jan-14 20:33N 54°33' E 012°15'1111.0
2017-Jan-14 19:33N 54°41' E 012°27'5212.7
2017-Jan-14 15:30N 55°01' E 013°49'1212.6
2017-Jan-14 14:33N 55°07' E 014°08'1312.9
2017-Jan-14 13:33N 55°17' E 014°22'1312.7
2017-Jan-14 12:33N 55°27' E 014°36'1312.6
2017-Jan-14 11:32N 55°32' E 014°56'1313.2
2017-Jan-14 10:32N 55°38' E 015°17'  

Dump ship's entire track history